Time;durP1;ratioP1;P1;durP2;ratioP2;P2;SDS_P1;SDS_P2;PMS_P1;PMS_P2;Temp;Humidity;BMP_temperature;BMP_pressure;BME280_temperature;BME280_humidity;BME280_pressure;Samples;Min_cycle;Max_cycle;Signal;HPM_P1;HPM_P2
2021/06/18 00:01:31;;;;;;;8.75;7.95;;;23.60;70.60;;;;;;5116825;28;20079;-69
2021/06/18 00:03:57;;;;;;;9.45;8.55;;;23.60;70.60;;;;;;5116900;28;20385;-69
2021/06/18 00:06:23;;;;;;;9.50;8.57;;;23.60;70.50;;;;;;5116894;28;20059;-69
2021/06/18 00:08:49;;;;;;;8.52;7.72;;;23.60;70.50;;;;;;5116781;28;20051;-69
2021/06/18 00:11:14;;;;;;;8.90;8.00;;;23.60;70.50;;;;;;5116564;28;20039;-69
2021/06/18 00:13:41;;;;;;;9.23;8.23;;;23.60;70.50;;;;;;5117078;28;20126;-70
2021/06/18 00:16:06;;;;;;;8.68;7.82;;;23.60;70.50;;;;;;5116529;28;20122;-68
2021/06/18 00:18:34;;;;;;;9.32;8.02;;;23.60;70.50;;;;;;5116583;28;20419;-69
2021/06/18 00:21:00;;;;;;;8.00;6.95;;;23.60;70.50;;;;;;5116561;28;20118;-69
2021/06/18 00:23:26;;;;;;;8.88;8.07;;;23.60;70.50;;;;;;5116626;28;20052;-69
2021/06/18 00:25:51;;;;;;;9.43;8.52;;;23.60;70.50;;;;;;5116114;28;20109;-69
2021/06/18 00:28:17;;;;;;;9.10;8.20;;;23.60;70.50;;;;;;5116193;28;20118;-69
2021/06/18 00:30:43;;;;;;;9.00;7.75;;;23.60;70.40;;;;;;5116114;28;20058;-69
2021/06/18 00:33:10;;;;;;;9.90;8.90;;;23.60;71.10;;;;;;5116587;28;20048;-68
2021/06/18 00:35:35;;;;;;;9.57;8.68;;;23.50;70.40;;;;;;5115918;28;20039;-70
2021/06/18 00:38:01;;;;;;;9.20;8.23;;;23.50;70.40;;;;;;5115406;28;20462;-69
2021/06/18 00:40:28;;;;;;;9.35;8.38;;;23.50;70.40;;;;;;5116314;28;20054;-69
2021/06/18 00:42:54;;;;;;;8.93;8.02;;;23.50;70.40;;;;;;5116315;28;20048;-68
2021/06/18 00:45:20;;;;;;;8.98;8.07;;;23.50;70.40;;;;;;5115948;28;20459;-68
2021/06/18 00:47:49;;;;;;;10.75;8.40;;;23.50;70.40;;;;;;5116075;28;20062;-69
2021/06/18 00:50:16;;;;;;;9.75;8.00;;;23.50;70.40;;;;;;5115822;28;20399;-69
2021/06/18 00:52:42;;;;;;;9.27;8.48;;;23.50;70.40;;;;;;5115725;28;20054;-69
2021/06/18 00:55:09;;;;;;;9.80;8.77;;;23.50;70.40;;;;;;5115546;28;20059;-69
2021/06/18 00:57:37;;;;;;;9.82;8.77;;;23.50;70.40;;;;;;5116147;28;20370;-70
2021/06/18 01:00:08;;;;;;;9.75;8.73;;;23.50;70.40;;;;;;5116062;28;20043;-69
2021/06/18 01:02:34;;;;;;;9.88;8.80;;;23.50;70.30;;;;;;5115981;28;20347;-70
2021/06/18 01:05:00;;;;;;;9.05;8.15;;;23.50;70.30;;;;;;5116152;28;20082;-70
2021/06/18 01:07:32;;;;;;;10.23;9.23;;;23.50;70.30;;;;;;5115235;28;20480;-68
2021/06/18 01:10:27;;;;;;;9.18;8.23;;;23.40;70.30;;;;;;5115692;28;20067;-69
2021/06/18 01:13:01;;;;;;;9.30;8.38;;;23.50;70.30;;;;;;5115585;28;20050;-69
2021/06/18 01:15:37;;;;;;;10.45;9.45;;;23.40;70.30;;;;;;5115829;28;20152;-69
2021/06/18 01:18:11;;;;;;;10.75;9.48;;;23.40;70.30;;;;;;5115614;28;20048;-69
2021/06/18 01:21:31;;;;;;;11.18;10.07;;;23.40;70.30;;;;;;5116228;28;20051;-69
2021/06/18 01:24:26;;;;;;;10.82;9.73;;;23.40;70.30;;;;;;5097572;28;20058;-68
2021/06/18 01:27:11;;;;;;;11.05;9.95;;;23.40;70.40;;;;;;5116102;28;20040;-70
2021/06/18 01:29:41;;;;;;;12.18;9.52;;;23.40;70.30;;;;;;5115755;28;20455;-69
2021/06/18 01:32:12;;;;;;;10.68;9.52;;;23.40;70.30;;;;;;5115714;28;20059;-68
2021/06/18 01:34:40;;;;;;;10.75;9.73;;;23.40;70.30;;;;;;5115932;28;20327;-69
2021/06/18 01:37:15;;;;;;;10.90;9.73;;;23.40;70.40;;;;;;5115802;28;20040;-70
2021/06/18 01:39:43;;;;;;;11.90;10.75;;;23.40;70.40;;;;;;5115632;28;20044;-68
2021/06/18 01:42:11;;;;;;;11.77;10.68;;;23.30;70.40;;;;;;5115253;28;20040;-69
2021/06/18 01:44:37;;;;;;;12.38;11.07;;;23.30;70.50;;;;;;5116084;28;20419;-69
2021/06/18 01:47:07;;;;;;;11.30;10.15;;;23.30;70.50;;;;;;5115817;28;20051;-69
2021/06/18 01:49:36;;;;;;;12.02;10.90;;;23.30;70.40;;;;;;5119604;28;20459;-69
2021/06/18 01:52:04;;;;;;;10.77;9.85;;;23.30;70.50;;;;;;5119496;28;20043;-68
2021/06/18 01:54:32;;;;;;;11.63;10.52;;;23.30;70.50;;;;;;5119054;28;20062;-69
2021/06/18 01:57:00;;;;;;;14.52;12.25;;;23.30;70.50;;;;;;5119629;28;20039;-69
2021/06/18 01:59:30;;;;;;;11.60;10.40;;;23.30;70.40;;;;;;5119604;28;20123;-70
2021/06/18 02:01:58;;;;;;;11.20;10.20;;;23.30;70.40;;;;;;5118947;28;20153;-70
2021/06/18 02:04:25;;;;;;;11.48;10.38;;;23.30;70.40;;;;;;5119483;28;20044;-70
2021/06/18 02:06:53;;;;;;;12.38;11.20;;;23.30;70.30;;;;;;5119300;28;20155;-69
2021/06/18 02:09:21;;;;;;;10.88;9.88;;;23.30;70.20;;;;;;5119380;28;20058;-68
2021/06/18 02:11:48;;;;;;;12.05;10.77;;;23.30;70.20;;;;;;5119181;28;20051;-69
2021/06/18 02:14:17;;;;;;;12.00;10.90;;;23.30;70.20;;;;;;5119083;28;20043;-70
2021/06/18 02:16:48;;;;;;;12.00;10.80;;;23.30;70.30;;;;;;5119128;28;20054;-70
2021/06/18 02:19:16;;;;;;;11.75;10.52;;;23.30;70.30;;;;;;5118974;28;20054;-69
2021/06/18 02:21:48;;;;;;;11.20;10.10;;;23.30;70.20;;;;;;5119011;28;20118;-69
2021/06/18 02:24:15;;;;;;;10.68;9.73;;;23.30;70.30;;;;;;5118398;28;20035;-69
2021/06/18 02:26:42;;;;;;;11.45;10.35;;;23.30;70.30;;;;;;5118756;28;20039;-69
2021/06/18 02:29:09;;;;;;;12.18;10.98;;;23.30;70.20;;;;;;5118980;27;20050;-68
2021/06/18 02:31:37;;;;;;;10.93;9.93;;;23.30;70.20;;;;;;5118581;28;20058;-69
2021/06/18 02:34:05;;;;;;;12.15;10.27;;;23.30;70.20;;;;;;5119143;28;20039;-70
2021/06/18 02:36:31;;;;;;;10.32;9.32;;;23.30;70.90;;;;;;5119083;28;20112;-69
2021/06/18 02:38:57;;;;;;;10.90;9.82;;;23.30;70.20;;;;;;5118119;28;20130;-68
2021/06/18 02:41:23;;;;;;;10.80;9.80;;;23.30;70.20;;;;;;5118672;28;20051;-69
2021/06/18 02:43:50;;;;;;;10.60;9.50;;;23.30;70.20;;;;;;5118346;28;20118;-69
2021/06/18 02:46:23;;;;;;;9.95;9.10;;;23.20;70.20;;;;;;5118473;28;20039;-69
2021/06/18 02:48:55;;;;;;;10.77;9.75;;;23.20;70.20;;;;;;5118213;28;20055;-69
2021/06/18 02:51:32;;;;;;;10.63;9.57;;;23.20;70.20;;;;;;5118318;28;20040;-69
2021/06/18 02:54:02;;;;;;;11.70;9.55;;;23.20;70.20;;;;;;5118402;28;20044;-69
2021/06/18 02:56:43;;;;;;;11.52;10.32;;;23.20;70.30;;;;;;5118311;28;20039;-70
2021/06/18 02:59:30;;;;;;;10.20;9.10;;;23.20;70.40;;;;;;5117496;28;20074;-70
2021/06/18 03:01:59;;;;;;;10.25;9.18;;;23.20;70.30;;;;;;5118197;27;20082;-69
2021/06/18 03:04:27;;;;;;;10.18;9.18;;;23.20;70.90;;;;;;5117777;28;20118;-69
2021/06/18 03:07:17;;;;;;;9.68;8.68;;;23.20;70.30;;;;;;5118447;28;20048;-68
2021/06/18 03:09:49;;;;;;;10.20;9.20;;;23.20;70.20;;;;;;5110890;28;20423;-70
2021/06/18 03:12:20;;;;;;;9.20;8.30;;;23.20;70.30;;;;;;5117974;28;20047;-69
2021/06/18 03:14:48;;;;;;;9.93;8.55;;;23.20;70.40;;;;;;5117898;28;20040;-69
2021/06/18 03:17:18;;;;;;;9.55;8.65;;;23.20;70.40;;;;;;5117568;28;20097;-69
2021/06/18 03:19:55;;;;;;;9.20;8.15;;;23.20;70.40;;;;;;5117769;28;20052;-69
2021/06/18 03:22:23;;;;;;;10.00;9.00;;;23.20;70.40;;;;;;5117892;28;20122;-70
2021/06/18 03:24:51;;;;;;;9.15;8.25;;;23.20;70.50;;;;;;5117271;28;20040;-69
2021/06/18 03:27:20;;;;;;;9.15;8.25;;;23.20;70.40;;;;;;5117863;28;20050;-68
2021/06/18 03:29:48;;;;;;;10.20;9.20;;;23.20;70.50;;;;;;5117602;28;20039;-69
2021/06/18 03:32:14;;;;;;;9.52;8.65;;;23.20;70.50;;;;;;5117452;28;20036;-69
2021/06/18 03:34:42;;;;;;;9.05;8.10;;;23.20;70.50;;;;;;5117630;28;20062;-69
2021/06/18 03:37:08;;;;;;;11.68;8.50;;;23.20;70.50;;;;;;5116985;28;20434;-69
2021/06/18 03:39:35;;;;;;;9.23;8.38;;;23.20;70.60;;;;;;5117014;28;20043;-69
2021/06/18 03:42:01;;;;;;;9.35;8.40;;;23.20;70.50;;;;;;5117095;28;20058;-69
2021/06/18 03:44:27;;;;;;;10.20;9.02;;;23.10;70.50;;;;;;5117233;28;20047;-70
2021/06/18 03:46:54;;;;;;;9.13;8.23;;;23.10;70.50;;;;;;5117760;28;20051;-69
2021/06/18 03:49:24;;;;;;;8.73;7.82;;;23.10;70.50;;;;;;5117213;28;20126;-69
2021/06/18 03:51:51;;;;;;;8.93;8.02;;;23.10;70.50;;;;;;5116327;28;20044;-69
2021/06/18 03:54:17;;;;;;;10.05;8.93;;;23.10;70.50;;;;;;5116861;28;20071;-70
2021/06/18 03:56:48;;;;;;;9.45;8.45;;;23.10;70.50;;;;;;5116942;28;20055;-69
2021/06/18 03:59:15;;;;;;;10.23;8.70;;;23.10;70.60;;;;;;5116795;28;20506;-69
2021/06/18 04:01:47;;;;;;;9.27;8.35;;;23.10;70.60;;;;;;5117154;28;20043;-68
2021/06/18 04:04:13;;;;;;;9.18;8.27;;;23.10;70.60;;;;;;5116870;28;20517;-69
2021/06/18 04:06:39;;;;;;;9.32;8.30;;;23.10;70.70;;;;;;5116511;28;20119;-69
2021/06/18 04:09:06;;;;;;;9.65;8.50;;;23.10;70.70;;;;;;5117055;28;20131;-69
2021/06/18 04:11:33;;;;;;;10.10;8.30;;;23.00;70.80;;;;;;5115638;28;20087;-68
2021/06/18 04:14:01;;;;;;;10.07;8.82;;;23.10;70.80;;;;;;5116873;28;20119;-69
2021/06/18 04:16:27;;;;;;;10.18;8.95;;;23.00;70.70;;;;;;5116405;28;20061;-69
2021/06/18 04:18:54;;;;;;;11.10;9.45;;;23.00;70.70;;;;;;5116661;28;20122;-69
2021/06/18 04:21:22;;;;;;;9.57;8.55;;;23.10;70.60;;;;;;5116779;28;20051;-69
2021/06/18 04:23:49;;;;;;;11.60;9.38;;;23.10;70.70;;;;;;5116808;28;20043;-69
2021/06/18 04:26:15;;;;;;;10.27;8.45;;;23.10;70.70;;;;;;5116234;28;20066;-69
2021/06/18 04:28:42;;;;;;;9.05;8.15;;;23.00;70.60;;;;;;5116228;28;20071;-69
2021/06/18 04:31:08;;;;;;;9.00;8.18;;;23.00;70.60;;;;;;5116429;28;20047;-69
2021/06/18 04:33:35;;;;;;;10.10;9.10;;;23.00;70.60;;;;;;5116185;28;20053;-69
2021/06/18 04:36:02;;;;;;;9.88;8.98;;;23.00;70.50;;;;;;5116094;28;20442;-69
2021/06/18 04:38:27;;;;;;;12.32;9.77;;;23.00;70.50;;;;;;5115862;28;20331;-69
2021/06/18 04:40:54;;;;;;;9.98;8.88;;;23.00;70.50;;;;;;5116082;28;20042;-69
2021/06/18 04:43:20;;;;;;;11.63;9.43;;;23.00;70.60;;;;;;5116219;28;20047;-69
2021/06/18 04:45:46;;;;;;;10.43;9.48;;;23.00;70.50;;;;;;5116047;28;20039;-69
2021/06/18 04:48:13;;;;;;;9.75;8.75;;;23.00;70.50;;;;;;5116645;28;20048;-68
2021/06/18 04:50:39;;;;;;;11.02;9.85;;;23.00;70.50;;;;;;5115007;27;20051;-69
2021/06/18 04:53:10;;;;;;;11.02;9.93;;;23.00;70.50;;;;;;5097062;28;20086;-69
2021/06/18 04:55:38;;;;;;;13.45;10.70;;;23.00;70.40;;;;;;5106323;28;20059;-69
2021/06/18 04:58:04;;;;;;;10.70;9.48;;;23.00;70.50;;;;;;5095774;28;20047;-70
2021/06/18 05:00:29;;;;;;;11.07;9.88;;;22.90;70.30;;;;;;5107407;28;20039;-69
2021/06/18 05:02:55;;;;;;;10.73;9.48;;;22.90;70.40;;;;;;5115804;28;20044;-70
2021/06/18 05:05:22;;;;;;;9.98;8.93;;;22.90;70.50;;;;;;5115578;28;20055;-71
2021/06/18 05:07:55;;;;;;;12.60;11.02;;;22.90;70.50;;;;;;5115426;28;20047;-69
2021/06/18 05:10:21;;;;;;;;;;;23.00;70.70;;;;;;5116138;28;20352;-70
2021/06/18 05:12:47;;;;;;;12.57;10.60;;;22.90;70.70;;;;;;5102447;28;20258;-70
2021/06/18 05:15:14;;;;;;;14.60;11.07;;;22.90;70.90;;;;;;5095253;28;20051;-69
2021/06/18 05:17:39;;;;;;;11.70;10.50;;;22.90;71.30;;;;;;5094977;28;20115;-70
2021/06/18 05:20:06;;;;;;;12.27;10.70;;;22.90;71.20;;;;;;5094870;28;20128;-70
2021/06/18 05:22:32;;;;;;;14.52;12.98;;;22.90;71.10;;;;;;5095949;28;20055;-73
2021/06/18 05:24:58;;;;;;;13.73;12.30;;;22.90;71.10;;;;;;5100014;28;20119;-71
2021/06/18 05:27:23;;;;;;;16.25;13.50;;;22.90;71.30;;;;;;5099397;28;20119;-72
2021/06/18 05:29:49;;;;;;;17.73;14.48;;;22.80;71.40;;;;;;5099374;28;20036;-69
2021/06/18 05:32:17;;;;;;;16.35;14.60;;;22.80;71.70;;;;;;5110162;28;20044;-71
2021/06/18 05:34:44;;;;;;;19.67;15.68;;;22.70;71.90;;;;;;5120090;28;20442;-71
2021/06/18 05:37:10;;;;;;;20.15;16.40;;;22.60;72.00;;;;;;5102276;28;20044;-70
2021/06/18 05:39:36;;;;;;;18.88;16.00;;;22.60;72.30;;;;;;5099333;28;20123;-71
2021/06/18 05:42:02;;;;;;;18.90;15.55;;;22.60;72.40;;;;;;5098979;28;20393;-72
2021/06/18 05:44:28;;;;;;;17.42;14.70;;;22.50;72.60;;;;;;5098637;28;20044;-70
2021/06/18 05:46:54;;;;;;;16.33;14.40;;;22.50;72.80;;;;;;5099340;28;20449;-71
2021/06/18 05:49:19;;;;;;;15.85;13.27;;;22.50;73.00;;;;;;5117189;28;20135;-72
2021/06/18 05:51:45;;;;;;;16.05;13.80;;;22.50;73.00;;;;;;5119278;28;20135;-71
2021/06/18 05:54:11;;;;;;;14.85;13.00;;;22.50;73.00;;;;;;5119169;28;20122;-71
2021/06/18 05:56:39;;;;;;;17.00;12.55;;;22.40;73.10;;;;;;5110105;28;20044;-72
2021/06/18 05:59:05;;;;;;;14.15;12.10;;;22.40;73.10;;;;;;5098751;28;20524;-72
2021/06/18 06:01:31;;;;;;;15.07;11.32;;;22.40;73.30;;;;;;5100152;28;20051;-70
2021/06/18 06:03:57;;;;;;;15.05;11.43;;;22.40;73.50;;;;;;5098610;28;20048;-71
2021/06/18 06:06:23;;;;;;;14.75;11.00;;;22.30;73.50;;;;;;5098667;28;20044;-70
2021/06/18 06:08:53;;;;;;;15.35;11.45;;;22.40;73.70;;;;;;5099361;28;20044;-71
2021/06/18 06:11:20;;;;;;;11.57;10.05;;;22.30;73.90;;;;;;5098732;28;20063;-71
2021/06/18 06:13:46;;;;;;;13.20;9.65;;;22.30;74.10;;;;;;5099287;28;20048;-70
2021/06/18 06:16:12;;;;;;;14.43;9.77;;;22.40;74.10;;;;;;5099551;28;20081;-71
2021/06/18 06:18:38;;;;;;;14.98;9.63;;;22.30;74.20;;;;;;5098080;28;20343;-73
2021/06/18 06:21:04;;;;;;;11.07;9.07;;;22.40;74.50;;;;;;5098490;28;20078;-70
2021/06/18 06:23:30;;;;;;;16.73;10.35;;;22.40;74.50;;;;;;5098319;28;20189;-69
2021/06/18 06:25:56;;;;;;;11.20;9.20;;;22.40;74.70;;;;;;5098584;28;20044;-70
2021/06/18 06:28:22;;;;;;;12.48;9.38;;;22.40;74.70;;;;;;5098063;28;20048;-70
2021/06/18 06:30:48;;;;;;;12.85;10.25;;;22.40;74.70;;;;;;5105378;28;20047;-74
2021/06/18 06:33:14;;;;;;;13.68;9.82;;;22.40;75.10;;;;;;5118456;28;20097;-71
2021/06/18 06:35:39;;;;;;;12.88;11.02;;;22.40;75.00;;;;;;5117394;28;20438;-70
2021/06/18 06:38:05;;;;;;;14.18;12.43;;;22.40;75.00;;;;;;5118417;28;20040;-71
2021/06/18 06:40:31;;;;;;;13.50;11.73;;;22.40;75.00;;;;;;5118127;28;20047;-71
2021/06/18 06:42:57;;;;;;;16.48;13.57;;;22.40;75.00;;;;;;5118342;28;20043;-71
2021/06/18 06:45:23;;;;;;;15.98;14.20;;;22.40;74.90;;;;;;5106208;28;20046;-71
2021/06/18 06:47:51;;;;;;;16.92;15.13;;;22.30;74.80;;;;;;5097630;28;20366;-70
2021/06/18 06:50:17;;;;;;;17.77;15.90;;;22.30;74.90;;;;;;5097737;28;20040;-71
2021/06/18 06:52:44;;;;;;;15.70;14.20;;;22.30;75.00;;;;;;5097714;28;20051;-72
2021/06/18 06:55:11;;;;;;;15.07;13.57;;;22.20;75.10;;;;;;5096939;28;20074;-70
2021/06/18 06:57:37;;;;;;;15.95;14.10;;;22.20;75.20;;;;;;5111084;28;20063;-70
2021/06/18 07:00:05;;;;;;;14.75;12.85;;;22.10;75.20;;;;;;5118006;28;20523;-70
2021/06/18 07:02:31;;;;;;;14.27;12.88;;;22.10;75.40;;;;;;5117030;28;20047;-70
2021/06/18 07:04:57;;;;;;;12.90;11.70;;;22.00;75.50;;;;;;5117387;28;20047;-71
2021/06/18 07:07:23;;;;;;;13.38;12.07;;;22.00;75.70;;;;;;5117796;28;20039;-70
2021/06/18 07:09:49;;;;;;;14.05;12.48;;;22.00;75.80;;;;;;5107896;28;20074;-70
2021/06/18 07:12:15;;;;;;;13.95;12.55;;;22.00;75.90;;;;;;5097470;28;20131;-70
2021/06/18 07:14:41;;;;;;;14.55;13.15;;;22.00;75.80;;;;;;5097720;28;20055;-70
2021/06/18 07:17:08;;;;;;;15.07;13.52;;;22.00;75.80;;;;;;5097284;28;20456;-70
2021/06/18 07:19:34;;;;;;;14.63;13.23;;;22.00;75.80;;;;;;5104445;28;20104;-70
2021/06/18 07:22:00;;;;;;;15.77;14.25;;;22.00;75.80;;;;;;5105501;28;20102;-70
2021/06/18 07:24:26;;;;;;;15.13;13.65;;;22.00;75.80;;;;;;5097332;28;20139;-72
2021/06/18 07:26:52;;;;;;;13.80;12.48;;;22.10;76.00;;;;;;5096951;28;20076;-71
2021/06/18 07:29:18;;;;;;;13.43;12.13;;;22.10;75.90;;;;;;5096649;28;20074;-70
2021/06/18 07:31:44;;;;;;;13.10;11.90;;;22.20;75.90;;;;;;5096767;28;20068;-70
2021/06/18 07:34:10;;;;;;;12.73;11.52;;;22.20;75.90;;;;;;5097124;28;20477;-70
2021/06/18 07:36:36;;;;;;;11.75;10.63;;;22.20;75.90;;;;;;5097068;28;20101;-70
2021/06/18 07:39:04;;;;;;;10.88;9.88;;;22.30;75.80;;;;;;5098343;28;20052;-70
2021/06/18 07:41:30;;;;;;;10.85;9.68;;;22.30;75.80;;;;;;5097187;28;20067;-71
2021/06/18 07:43:56;;;;;;;10.57;9.57;;;22.30;75.70;;;;;;5096283;28;20359;-71
2021/06/18 07:46:24;;;;;;;15.90;9.70;;;22.30;75.50;;;;;;5096756;28;20044;-71
2021/06/18 07:48:50;;;;;;;13.00;9.98;;;22.40;75.50;;;;;;5097307;28;20044;-70
2021/06/18 07:51:17;;;;;;;20.10;10.35;;;22.40;75.50;;;;;;5096529;28;20044;-75
2021/06/18 07:53:43;;;;;;;12.40;8.57;;;22.40;75.40;;;;;;5097311;28;20032;-71
2021/06/18 07:56:09;;;;;;;10.10;8.32;;;22.40;75.40;;;;;;5096186;28;20056;-71
2021/06/18 07:58:38;;;;;;;10.10;9.10;;;22.40;75.50;;;;;;5096730;28;20119;-69
2021/06/18 08:01:05;;;;;;;12.85;10.23;;;22.50;75.40;;;;;;5098389;28;20476;-71
2021/06/18 08:03:30;;;;;;;19.25;13.02;;;22.50;75.90;;;;;;5096158;28;20118;-71
2021/06/18 08:05:56;;;;;;;18.17;12.43;;;22.50;75.90;;;;;;5096038;28;20055;-70
2021/06/18 08:08:23;;;;;;;13.15;12.02;;;22.50;76.50;;;;;;5096274;28;20115;-70
2021/06/18 08:10:48;;;;;;;13.15;11.95;;;22.40;76.90;;;;;;5096669;28;20395;-70
2021/06/18 08:13:14;;;;;;;15.35;13.80;;;22.40;77.10;;;;;;5095945;28;20051;-70
2021/06/18 08:15:40;;;;;;;13.93;12.52;;;22.40;77.60;;;;;;5095480;28;20094;-71
2021/06/18 08:18:06;;;;;;;14.98;13.68;;;22.30;77.60;;;;;;5095878;28;20052;-71
2021/06/18 08:20:31;;;;;;;13.60;12.32;;;22.30;77.60;;;;;;5095923;28;20362;-70
2021/06/18 08:22:58;;;;;;;13.13;11.77;;;22.30;77.70;;;;;;5096789;28;20442;-70
2021/06/18 08:25:24;;;;;;;11.48;10.27;;;22.30;77.70;;;;;;5114864;28;20036;-71
2021/06/18 08:27:50;;;;;;;11.65;10.05;;;22.30;77.60;;;;;;5116758;28;20097;-71
2021/06/18 08:30:17;;;;;;;12.27;11.15;;;22.40;77.60;;;;;;5116353;28;20047;-71
2021/06/18 08:32:43;;;;;;;11.75;10.63;;;22.40;77.40;;;;;;5116260;28;20047;-70
2021/06/18 08:35:09;;;;;;;11.52;10.40;;;22.40;77.40;;;;;;5116199;28;20051;-71
2021/06/18 08:37:34;;;;;;;12.15;11.05;;;22.40;77.40;;;;;;5116798;28;20108;-70
2021/06/18 08:40:02;;;;;;;11.93;10.85;;;22.40;77.40;;;;;;5115938;28;20055;-70
2021/06/18 08:42:28;;;;;;;11.73;10.73;;;22.40;77.40;;;;;;5116279;28;20047;-71
2021/06/18 08:44:54;;;;;;;11.77;10.57;;;22.40;77.40;;;;;;5116093;28;20043;-70
2021/06/18 08:47:20;;;;;;;12.60;11.30;;;22.50;77.50;;;;;;5111911;28;20050;-70
2021/06/18 08:49:46;;;;;;;11.43;10.35;;;22.50;77.60;;;;;;5095631;28;20040;-70
2021/06/18 08:52:12;;;;;;;11.65;10.60;;;22.50;77.70;;;;;;5095517;28;20248;-71
2021/06/18 08:54:42;;;;;;;11.55;10.43;;;22.50;77.70;;;;;;5095134;28;20359;-70
2021/06/18 08:57:16;;;;;;;12.43;10.75;;;22.50;77.80;;;;;;5095417;28;20056;-70
2021/06/18 08:59:43;;;;;;;11.60;10.50;;;22.50;77.60;;;;;;5095439;28;20050;-70
2021/06/18 09:02:13;;;;;;;11.18;10.07;;;22.50;77.70;;;;;;5103978;28;20077;-70
2021/06/18 09:05:14;;;;;;;10.85;9.80;;;22.50;77.70;;;;;;5116027;28;20051;-71
2021/06/18 09:07:53;;;;;;;12.30;11.23;;;22.50;77.40;;;;;;5052958;28;20059;-70
2021/06/18 09:10:31;;;;;;;11.63;10.30;;;22.50;77.60;;;;;;5108927;28;20068;-70
2021/06/18 09:13:11;;;;;;;12.45;11.25;;;22.50;77.60;;;;;;5113502;28;20058;-71
2021/06/18 09:15:39;;;;;;;10.60;9.60;;;22.50;77.70;;;;;;5095289;28;20051;-70
2021/06/18 09:18:26;;;;;;;11.10;10.00;;;22.50;77.70;;;;;;5095237;28;20106;-71
2021/06/18 09:20:55;;;;;;;10.20;9.30;;;22.50;77.50;;;;;;5095592;28;20139;-71
2021/06/18 09:23:27;;;;;;;10.40;9.50;;;22.50;77.60;;;;;;5095176;28;20185;-70
2021/06/18 09:26:18;;;;;;;10.60;9.68;;;22.50;77.50;;;;;;5095597;28;20052;-71
2021/06/18 09:29:04;;;;;;;11.20;10.18;;;22.50;77.30;;;;;;5094712;28;20377;-71
2021/06/18 09:31:37;;;;;;;10.25;9.10;;;22.50;77.30;;;;;;5094614;28;20382;-70
2021/06/18 09:34:04;;;;;;;9.45;8.65;;;22.50;77.40;;;;;;5095999;28;20040;-70
2021/06/18 09:36:30;;;;;;;10.23;9.32;;;22.50;77.30;;;;;;5095319;28;20044;-71
2021/06/18 09:38:58;;;;;;;9.98;9.18;;;22.50;77.20;;;;;;5095411;28;20085;-70
2021/06/18 09:41:32;;;;;;;10.50;9.45;;;22.50;77.10;;;;;;5096249;28;20040;-70
2021/06/18 09:44:12;;;;;;;10.13;9.23;;;22.50;77.10;;;;;;5115680;28;20058;-70
2021/06/18 09:46:53;;;;;;;11.10;10.00;;;22.50;77.10;;;;;;5115225;28;20442;-71
2021/06/18 09:49:30;;;;;;;10.50;9.48;;;22.50;77.00;;;;;;5115651;28;20043;-70
2021/06/18 09:52:15;;;;;;;10.15;9.25;;;22.50;77.00;;;;;;5115509;28;20102;-71
2021/06/18 09:54:45;;;;;;;10.45;9.40;;;22.50;77.00;;;;;;5114627;28;20408;-70
2021/06/18 09:57:13;;;;;;;9.38;8.48;;;22.50;77.00;;;;;;5115241;28;20094;-71
2021/06/18 09:59:46;;;;;;;9.77;8.98;;;22.40;77.00;;;;;;5115637;28;20438;-70
2021/06/18 10:02:11;;;;;;;10.75;9.75;;;22.50;77.00;;;;;;5115307;28;20054;-71
2021/06/18 10:04:39;;;;;;;9.85;8.85;;;22.50;77.00;;;;;;5115532;28;20450;-71
2021/06/18 10:07:04;;;;;;;9.57;8.55;;;22.40;77.00;;;;;;5115192;28;20044;-70
2021/06/18 10:09:31;;;;;;;11.57;10.50;;;22.50;77.00;;;;;;5112465;28;20044;-71
2021/06/18 10:11:57;;;;;;;10.95;9.90;;;22.50;77.00;;;;;;5098952;28;20079;-70
2021/06/18 10:14:23;;;;;;;10.63;9.73;;;22.50;77.00;;;;;;5098561;28;20076;-70
2021/06/18 10:16:49;;;;;;;10.02;9.13;;;22.40;77.00;;;;;;5098774;28;20040;-70
2021/06/18 10:19:17;;;;;;;10.15;9.25;;;22.40;76.90;;;;;;5098550;28;20055;-70
2021/06/18 10:22:08;;;;;;;10.90;9.98;;;22.50;77.00;;;;;;5098423;28;20076;-71
2021/06/18 10:24:50;;;;;;;10.82;9.82;;;22.50;76.90;;;;;;5098317;28;20447;-70
2021/06/18 10:27:18;;;;;;;11.32;10.38;;;22.50;77.00;;;;;;5098799;28;20097;-70
2021/06/18 10:29:45;;;;;;;9.27;8.48;;;22.40;77.00;;;;;;5098375;28;20439;-71
2021/06/18 10:32:32;;;;;;;10.10;9.20;;;22.40;76.90;;;;;;5098003;28;20043;-70
2021/06/18 10:34:59;;;;;;;9.15;8.25;;;22.50;76.80;;;;;;5098008;28;20059;-71
2021/06/18 10:37:28;;;;;;;9.98;8.98;;;22.50;76.90;;;;;;5099688;28;20050;-70
2021/06/18 10:39:56;;;;;;;9.38;8.57;;;22.40;76.80;;;;;;5098034;28;20350;-71
2021/06/18 10:42:23;;;;;;;8.60;7.82;;;22.40;76.70;;;;;;5098332;28;20184;-70
2021/06/18 10:44:53;;;;;;;8.70;7.90;;;22.40;76.70;;;;;;5097827;28;20048;-70
2021/06/18 10:47:25;;;;;;;8.80;8.00;;;22.40;76.80;;;;;;5097494;28;20412;-70
2021/06/18 10:49:53;;;;;;;9.55;8.50;;;22.40;76.80;;;;;;5097893;28;20048;-71
2021/06/18 10:52:21;;;;;;;9.77;8.88;;;22.40;76.80;;;;;;5097801;28;20040;-70
2021/06/18 10:54:58;;;;;;;9.60;8.68;;;22.40;76.80;;;;;;5098474;28;20127;-70
2021/06/18 10:57:25;;;;;;;13.35;8.93;;;22.40;76.90;;;;;;5096760;28;20127;-69
2021/06/18 11:00:25;;;;;;;8.10;7.35;;;22.40;76.90;;;;;;5096438;28;20109;-68
2021/06/18 11:02:51;;;;;;;7.38;6.55;;;22.50;76.80;;;;;;5097388;28;20047;-69
2021/06/18 11:05:17;;;;;;;7.57;6.88;;;22.50;76.80;;;;;;5108979;28;20039;-69
2021/06/18 11:07:43;;;;;;;7.45;6.57;;;22.50;76.70;;;;;;5098052;28;20066;-69
2021/06/18 11:10:15;;;;;;;7.55;6.00;;;22.60;76.60;;;;;;5097757;28;20054;-69
2021/06/18 11:13:10;;;;;;;8.73;5.93;;;22.60;76.60;;;;;;5097719;28;20064;-69
2021/06/18 11:15:39;;;;;;;6.25;5.25;;;22.60;76.50;;;;;;5097314;28;20075;-69
2021/06/18 11:18:16;;;;;;;5.97;5.47;;;22.60;76.50;;;;;;5097505;28;20040;-70
2021/06/18 11:20:42;;;;;;;6.18;5.07;;;22.70;76.50;;;;;;5096626;28;20048;-69
2021/06/18 11:23:21;;;;;;;6.18;5.07;;;22.60;76.40;;;;;;5097572;28;20426;-69
2021/06/18 11:25:50;;;;;;;8.15;5.50;;;22.70;76.40;;;;;;5111455;28;20327;-70
2021/06/18 11:28:21;;;;;;;6.13;5.47;;;22.70;76.50;;;;;;5117526;28;20039;-70
2021/06/18 11:30:57;;;;;;;5.32;4.40;;;22.70;76.50;;;;;;5117593;28;20411;-70
2021/06/18 11:33:42;;;;;;;10.40;5.55;;;22.70;76.30;;;;;;5116781;28;20044;-69
2021/06/18 11:36:07;;;;;;;5.65;5.03;;;22.80;76.30;;;;;;5097101;28;20529;-69
2021/06/18 11:38:34;;;;;;;5.47;4.82;;;22.80;76.30;;;;;;5097120;28;20040;-70
2021/06/18 11:41:05;;;;;;;4.72;4.32;;;22.80;76.20;;;;;;5096953;28;20059;-70
2021/06/18 11:43:32;;;;;;;4.85;4.03;;;22.80;76.20;;;;;;5096339;28;20131;-70
2021/06/18 11:45:59;;;;;;;7.60;4.43;;;22.80;76.10;;;;;;5096764;28;20457;-69
2021/06/18 11:48:26;;;;;;;5.88;4.20;;;22.80;76.10;;;;;;5096593;28;20040;-70
2021/06/18 11:50:52;;;;;;;15.45;5.03;;;22.80;76.20;;;;;;5096508;28;20468;-70
2021/06/18 11:53:19;;;;;;;7.88;5.18;;;22.80;76.10;;;;;;5096522;28;20067;-70
2021/06/18 11:55:55;;;;;;;9.10;7.03;;;22.80;76.20;;;;;;5096128;28;20036;-70
2021/06/18 11:58:31;;;;;;;7.38;6.68;;;22.80;76.20;;;;;;5096697;28;20445;-70
2021/06/18 12:00:58;;;;;;;7.20;5.97;;;22.80;76.20;;;;;;5096090;28;20051;-70
2021/06/18 12:03:31;;;;;;;7.70;6.50;;;22.80;76.30;;;;;;5113109;28;20039;-71
2021/06/18 12:05:57;;;;;;;8.77;7.03;;;22.80;76.20;;;;;;5117078;28;20039;-70
2021/06/18 12:08:23;;;;;;;9.82;7.57;;;22.80;76.30;;;;;;5116565;28;20104;-70
2021/06/18 12:10:49;;;;;;;8.82;7.22;;;22.80;76.40;;;;;;5116643;28;20047;-71
2021/06/18 12:13:16;;;;;;;10.52;7.60;;;22.80;76.40;;;;;;5116711;28;20127;-71
2021/06/18 12:15:45;;;;;;;7.78;6.97;;;22.80;76.40;;;;;;5117005;28;20039;-70
2021/06/18 12:18:11;;;;;;;10.82;7.65;;;22.80;77.10;;;;;;5116802;28;20035;-71
2021/06/18 12:20:42;;;;;;;8.00;7.03;;;22.80;76.40;;;;;;5117215;28;20050;-71
2021/06/18 12:23:14;;;;;;;10.13;6.85;;;22.80;76.40;;;;;;5117272;28;20048;-71
2021/06/18 12:25:40;;;;;;;8.30;6.80;;;22.90;77.00;;;;;;5116768;28;20043;-71
2021/06/18 12:28:08;;;;;;;8.27;6.65;;;22.80;76.30;;;;;;5116269;28;20039;-71
2021/06/18 12:30:36;;;;;;;8.43;6.50;;;22.90;76.20;;;;;;5104350;28;20462;-71
2021/06/18 12:33:05;;;;;;;7.22;6.22;;;22.90;76.10;;;;;;5094962;28;20063;-71
2021/06/18 12:35:40;;;;;;;9.55;6.60;;;22.90;76.00;;;;;;5095760;28;20405;-71
2021/06/18 12:38:08;;;;;;;8.63;6.20;;;22.90;75.90;;;;;;5096084;28;20048;-71
2021/06/18 12:40:35;;;;;;;8.32;6.93;;;22.90;76.00;;;;;;5095424;28;20143;-71
2021/06/18 12:43:09;;;;;;;9.75;5.85;;;22.90;75.90;;;;;;5095992;28;20093;-72
2021/06/18 12:45:48;;;;;;;7.13;6.40;;;22.90;75.80;;;;;;5095670;28;20048;-71
2021/06/18 12:48:28;;;;;;;6.80;6.10;;;23.00;75.90;;;;;;5095730;28;20120;-71